Time;durP1;ratioP1;P1;durP2;ratioP2;P2;SDS_P1;SDS_P2;PMS_P1;PMS_P2;Temp;Humidity;BMP_temperature;BMP_pressure;BME280_temperature;BME280_humidity;BME280_pressure;Samples;Min_cycle;Max_cycle;Signal;HPM_P1;HPM_P2
2022/07/22 00:01:07;;;;;;;0.00;0.00;;;24.10;43.90;;;;;;5136238;27;20058;-75
2022/07/22 00:03:33;;;;;;;0.00;0.00;;;24.00;43.80;;;;;;5121187;27;20065;-75
2022/07/22 00:05:59;;;;;;;0.00;0.00;;;24.20;43.70;;;;;;5134010;27;20022;-75
2022/07/22 00:08:25;;;;;;;0.00;0.00;;;24.20;43.50;;;;;;5136140;27;20400;-75
2022/07/22 00:10:51;;;;;;;0.00;0.00;;;24.10;44.10;;;;;;5139317;27;20038;-75
2022/07/22 00:13:17;;;;;;;0.00;0.00;;;24.20;44.80;;;;;;5136092;27;20027;-75
2022/07/22 00:15:43;;;;;;;0.00;0.00;;;24.20;45.10;;;;;;5134227;27;20023;-75
2022/07/22 00:18:09;;;;;;;0.00;0.00;;;24.20;44.90;;;;;;5137182;27;20507;-75
2022/07/22 00:20:35;;;;;;;0.00;0.00;;;24.30;44.60;;;;;;5147823;27;20054;-75
2022/07/22 00:23:01;;;;;;;0.00;0.00;;;24.40;45.30;;;;;;5135123;27;20496;-75
2022/07/22 00:25:28;;;;;;;0.00;0.00;;;24.60;44.70;;;;;;5135023;27;20269;-75
2022/07/22 00:27:54;;;;;;;0.05;0.05;;;24.60;44.40;;;;;;5138168;27;20358;-75
2022/07/22 00:30:21;;;;;;;0.00;0.00;;;24.60;44.90;;;;;;5137258;27;20027;-75
2022/07/22 00:32:47;;;;;;;0.00;0.00;;;24.80;44.30;;;;;;5147282;27;20458;-75
2022/07/22 00:35:13;;;;;;;0.00;0.00;;;24.80;45.10;;;;;;5147406;27;20062;-75
2022/07/22 00:37:39;;;;;;;0.00;0.00;;;25.00;43.40;;;;;;5135457;27;20023;-75
2022/07/22 00:40:06;;;;;;;0.00;0.00;;;25.20;43.30;;;;;;5138991;27;20038;-75
2022/07/22 00:42:34;;;;;;;0.00;0.00;;;25.90;41.80;;;;;;5134952;27;20019;-75
2022/07/22 00:45:00;;;;;;;0.00;0.00;;;26.80;37.90;;;;;;5138709;27;20034;-75
2022/07/22 00:47:26;;;;;;;0.00;0.00;;;27.60;41.10;;;;;;5141306;27;20027;-75
2022/07/22 00:49:52;;;;;;;0.00;0.00;;;28.20;40.90;;;;;;5137183;27;20022;-75
2022/07/22 00:52:20;;;;;;;0.00;0.00;;;28.70;40.80;;;;;;5133875;27;20499;-75
2022/07/22 00:54:46;;;;;;;0.00;0.00;;;29.50;38.40;;;;;;5140251;27;20030;-75
2022/07/22 00:57:12;;;;;;;0.08;0.08;;;30.40;38.10;;;;;;5155642;27;20063;-75
2022/07/22 00:59:38;;;;;;;2.28;2.17;;;30.70;37.90;;;;;;5141187;27;20035;-75
2022/07/22 01:02:04;;;;;;;0.00;0.00;;;31.20;36.50;;;;;;5136932;27;20019;-74
2022/07/22 01:04:30;;;;;;;0.00;0.00;;;31.50;35.70;;;;;;5141500;27;20030;-73
2022/07/22 01:06:56;;;;;;;0.00;0.00;;;32.30;34.60;;;;;;5140653;27;20047;-76
2022/07/22 01:09:22;;;;;;;0.00;0.00;;;32.70;34.00;;;;;;5124370;27;20183;-75
2022/07/22 01:11:48;;;;;;;0.00;0.00;;;33.10;33.70;;;;;;5134376;27;20015;-75
2022/07/22 01:14:15;;;;;;;0.32;0.32;;;33.30;34.80;;;;;;5133847;27;20102;-75
2022/07/22 01:16:41;;;;;;;0.00;0.00;;;34.00;34.60;;;;;;5138457;27;20024;-75
2022/07/22 01:19:07;;;;;;;0.00;0.00;;;34.40;32.80;;;;;;5141151;27;20027;-75
2022/07/22 01:21:33;;;;;;;0.15;0.15;;;34.50;33.10;;;;;;5135903;27;20123;-75
2022/07/22 01:23:59;;;;;;;0.00;0.00;;;34.50;32.10;;;;;;5134091;27;20404;-75
2022/07/22 01:26:25;;;;;;;0.00;0.00;;;34.90;32.00;;;;;;5144106;27;20022;-75
2022/07/22 01:28:51;;;;;;;0.98;0.98;;;35.20;31.80;;;;;;5141853;27;20511;-75
2022/07/22 01:31:17;;;;;;;0.00;0.00;;;35.00;31.40;;;;;;5142833;27;20027;-75
2022/07/22 01:33:43;;;;;;;0.05;0.05;;;34.80;32.50;;;;;;5139299;27;20055;-75
2022/07/22 01:36:10;;;;;;;0.00;0.00;;;34.90;31.30;;;;;;5141568;27;20416;-75
2022/07/22 01:38:36;;;;;;;0.00;0.00;;;34.40;32.00;;;;;;5137490;27;20023;-75
2022/07/22 01:41:02;;;;;;;0.00;0.00;;;34.00;32.00;;;;;;5139688;27;20023;-75
2022/07/22 01:43:28;;;;;;;0.00;0.00;;;34.20;33.10;;;;;;5135786;27;20023;-75
2022/07/22 01:45:55;;;;;;;0.00;0.00;;;34.20;32.80;;;;;;5115093;27;20130;-74
2022/07/22 01:48:23;;;;;;;0.00;0.00;;;34.50;32.50;;;;;;5136383;27;20031;-75
2022/07/22 01:50:49;;;;;;;0.00;0.00;;;34.70;32.00;;;;;;5132834;27;20157;-74
2022/07/22 01:53:16;;;;;;;0.00;0.00;;;35.00;32.30;;;;;;5134458;27;20019;-74
2022/07/22 01:55:42;;;;;;;0.00;0.00;;;35.10;30.60;;;;;;5136959;27;20031;-74
2022/07/22 01:58:08;;;;;;;0.00;0.00;;;35.10;30.50;;;;;;5134958;27;20067;-74
2022/07/22 02:00:35;;;;;;;0.00;0.00;;;35.20;30.60;;;;;;5133737;27;20354;-75
2022/07/22 02:03:02;;;;;;;0.00;0.00;;;35.60;29.60;;;;;;5134913;27;20068;-76
2022/07/22 02:05:28;;;;;;;0.00;0.00;;;36.00;30.00;;;;;;5120335;27;20023;-74
2022/07/22 02:08:03;;;;;;;0.00;0.00;;;35.90;30.30;;;;;;5131657;27;20038;-73
2022/07/22 02:10:29;;;;;;;0.00;0.00;;;36.30;30.10;;;;;;5134135;27;20035;-74
2022/07/22 02:12:57;;;;;;;0.05;0.05;;;36.90;30.00;;;;;;5134065;27;20015;-74
2022/07/22 02:15:23;;;;;;;0.00;0.00;;;37.00;28.70;;;;;;5137780;27;20377;-75
2022/07/22 02:17:49;;;;;;;0.10;0.10;;;37.70;28.20;;;;;;5132017;27;20066;-74
2022/07/22 02:20:16;;;;;;;0.00;0.00;;;38.50;28.50;;;;;;5133239;27;20047;-74
2022/07/22 02:22:42;;;;;;;0.00;0.00;;;39.10;27.10;;;;;;5133040;28;20029;-74
2022/07/22 02:25:08;;;;;;;0.00;0.00;;;39.40;26.70;;;;;;5133438;27;20015;-75
2022/07/22 02:27:34;;;;;;;0.10;0.10;;;39.90;25.70;;;;;;5134189;27;20118;-75
2022/07/22 02:30:00;;;;;;;0.00;0.00;;;40.00;25.30;;;;;;5132062;27;20031;-75
2022/07/22 02:32:27;;;;;;;0.10;0.10;;;39.80;26.40;;;;;;5131330;27;20476;-76
2022/07/22 02:34:53;;;;;;;0.00;0.00;;;40.70;26.60;;;;;;5134018;27;20548;-75
2022/07/22 02:37:19;;;;;;;2.58;2.08;;;40.50;25.60;;;;;;5128987;27;20039;-75
2022/07/22 02:39:45;;;;;;;0.05;0.05;;;40.80;24.40;;;;;;5122675;27;20461;-75
2022/07/22 02:42:11;;;;;;;0.75;0.73;;;40.50;26.00;;;;;;5129038;27;20085;-74
2022/07/22 02:44:37;;;;;;;0.00;0.00;;;40.10;24.70;;;;;;5128731;28;20027;-74
2022/07/22 02:47:03;;;;;;;1.85;1.75;;;40.50;25.60;;;;;;5125838;27;20019;-75
2022/07/22 02:49:29;;;;;;;0.30;0.30;;;40.90;25.50;;;;;;5127017;27;20132;-75
2022/07/22 02:51:55;;;;;;;0.00;0.00;;;40.70;25.50;;;;;;5128207;27;20084;-75
2022/07/22 02:54:21;;;;;;;2.65;2.55;;;40.80;25.10;;;;;;5133263;27;20033;-75
2022/07/22 02:56:47;;;;;;;0.00;0.00;;;41.80;25.10;;;;;;5115561;27;20027;-75
2022/07/22 02:59:14;;;;;;;0.00;0.00;;;41.70;26.00;;;;;;5117284;27;20098;-75
2022/07/22 03:01:40;;;;;;;0.40;0.40;;;42.40;25.10;;;;;;5127616;27;20027;-74
2022/07/22 03:04:06;;;;;;;0.00;0.00;;;38.80;25.10;;;;;;5132494;27;20034;-76
2022/07/22 03:06:32;;;;;;;0.17;0.17;;;40.20;29.80;;;;;;5125662;27;20027;-74
2022/07/22 03:08:58;;;;;;;0.55;0.20;;;40.10;28.70;;;;;;5137257;27;20488;-74
2022/07/22 03:11:33;;;;;;;5.65;3.50;;;40.50;26.00;;;;;;5133789;27;20052;-75
2022/07/22 03:13:59;;;;;;;2.97;2.72;;;40.10;27.20;;;;;;5132559;27;20023;-74
2022/07/22 03:16:25;;;;;;;0.10;0.10;;;39.60;26.20;;;;;;5134720;27;20023;-75
2022/07/22 03:18:51;;;;;;;0.00;0.00;;;39.40;28.70;;;;;;5134588;27;20416;-75
2022/07/22 03:21:17;;;;;;;0.43;0.43;;;39.10;29.40;;;;;;5129127;27;20427;-74
2022/07/22 03:23:43;;;;;;;0.10;0.10;;;39.30;29.20;;;;;;5135202;27;20044;-75
2022/07/22 03:26:10;;;;;;;0.20;0.20;;;39.20;28.20;;;;;;5133139;27;20045;-74
2022/07/22 03:28:36;;;;;;;0.10;0.10;;;38.50;28.70;;;;;;5134152;27;20031;-73
2022/07/22 03:31:02;;;;;;;0.10;0.10;;;38.70;28.80;;;;;;5130376;27;20038;-75
2022/07/22 03:33:28;;;;;;;0.20;0.20;;;37.90;27.30;;;;;;5134160;27;20015;-75
2022/07/22 03:35:54;;;;;;;0.08;0.08;;;38.40;28.30;;;;;;5130238;27;20656;-74
2022/07/22 03:38:20;;;;;;;0.40;0.40;;;38.50;28.70;;;;;;5129439;27;20479;-74
2022/07/22 03:40:46;;;;;;;0.20;0.20;;;39.50;28.80;;;;;;5130390;27;20046;-73
2022/07/22 03:43:12;;;;;;;0.45;0.40;;;40.40;28.10;;;;;;5131759;27;20025;-74
2022/07/22 03:45:38;;;;;;;0.30;0.30;;;41.10;27.40;;;;;;5129052;27;20019;-75
2022/07/22 03:48:04;;;;;;;0.10;0.10;;;39.30;28.70;;;;;;5129107;27;20382;-75
2022/07/22 03:50:30;;;;;;;0.10;0.10;;;40.00;28.00;;;;;;5131283;27;20050;-74
2022/07/22 03:52:56;;;;;;;0.00;0.00;;;39.30;30.00;;;;;;5129494;27;20105;-74
2022/07/22 03:55:22;;;;;;;0.00;0.00;;;38.10;30.00;;;;;;5126924;27;20099;-75
2022/07/22 03:57:48;;;;;;;0.00;0.00;;;38.10;30.30;;;;;;5130527;27;20098;-75
2022/07/22 04:00:15;;;;;;;0.03;0.03;;;37.40;31.00;;;;;;5124651;27;20023;-75
2022/07/22 04:02:41;;;;;;;0.00;0.00;;;37.50;30.10;;;;;;5128804;27;20031;-74
2022/07/22 04:05:07;;;;;;;0.45;0.45;;;36.90;29.90;;;;;;5127744;27;20035;-74
2022/07/22 04:07:33;;;;;;;1.65;0.95;;;36.10;28.20;;;;;;5125040;27;20107;-75
2022/07/22 04:10:04;;;;;;;0.38;0.38;;;35.80;30.00;;;;;;5126692;27;20027;-74
2022/07/22 04:12:35;;;;;;;3.30;3.00;;;35.30;25.30;;;;;;5130063;27;20106;-75
2022/07/22 04:15:01;;;;;;;0.00;0.00;;;35.20;26.10;;;;;;5131307;27;20022;-75
2022/07/22 04:17:28;;;;;;;0.10;0.10;;;35.60;26.40;;;;;;5128155;27;20382;-75
2022/07/22 04:19:54;;;;;;;0.00;0.00;;;36.00;25.50;;;;;;5130220;27;20438;-75
2022/07/22 04:22:20;;;;;;;0.00;0.00;;;35.50;25.60;;;;;;5133597;27;20456;-74
2022/07/22 04:24:46;;;;;;;0.75;0.20;;;35.50;24.20;;;;;;5129862;27;20031;-75
2022/07/22 04:27:12;;;;;;;0.00;0.00;;;35.50;25.00;;;;;;5109047;27;20042;-74
2022/07/22 04:29:38;;;;;;;0.55;0.55;;;35.50;25.00;;;;;;5126011;27;20385;-75
2022/07/22 04:32:05;;;;;;;0.00;0.00;;;35.70;25.90;;;;;;5126643;27;20038;-75
2022/07/22 04:34:31;;;;;;;0.32;0.30;;;35.30;26.20;;;;;;5130003;27;20069;-75
2022/07/22 04:36:58;;;;;;;0.20;0.20;;;35.20;26.60;;;;;;5134336;27;20030;-75
2022/07/22 04:39:24;;;;;;;0.00;0.00;;;35.40;25.40;;;;;;5125617;27;20485;-75
2022/07/22 04:41:50;;;;;;;0.77;0.47;;;35.40;26.50;;;;;;5128126;27;20035;-74
2022/07/22 04:44:16;;;;;;;0.17;0.10;;;35.40;27.10;;;;;;5124742;27;20036;-75
2022/07/22 04:46:42;;;;;;;0.00;0.00;;;35.40;26.90;;;;;;5118269;27;20027;-74
2022/07/22 04:49:08;;;;;;;0.00;0.00;;;35.30;25.80;;;;;;5126763;27;20114;-75
2022/07/22 04:51:34;;;;;;;0.63;0.63;;;35.10;26.00;;;;;;5126854;27;20027;-75
2022/07/22 04:54:00;;;;;;;0.03;0.03;;;35.00;26.30;;;;;;5128412;27;20064;-74
2022/07/22 04:56:26;;;;;;;0.00;0.00;;;35.20;27.10;;;;;;5129586;27;20027;-75
2022/07/22 04:58:52;;;;;;;0.00;0.00;;;35.40;26.80;;;;;;5128349;27;20030;-75
2022/07/22 05:01:18;;;;;;;0.05;0.05;;;35.60;26.50;;;;;;5132255;27;20469;-75
2022/07/22 05:03:44;;;;;;;0.00;0.00;;;35.70;26.50;;;;;;5131044;27;20027;-74
2022/07/22 05:06:10;;;;;;;1.55;0.52;;;35.50;25.30;;;;;;5128653;27;20030;-75
2022/07/22 05:08:36;;;;;;;0.00;0.00;;;35.30;25.70;;;;;;5134785;27;20023;-75
2022/07/22 05:11:03;;;;;;;0.20;0.20;;;35.40;25.60;;;;;;5130090;27;20019;-75
2022/07/22 05:13:29;;;;;;;0.00;0.00;;;35.40;24.50;;;;;;5127357;27;20027;-75
2022/07/22 05:15:55;;;;;;;1.67;0.70;;;35.40;24.80;;;;;;5127180;27;20026;-75
2022/07/22 05:18:21;;;;;;;0.08;0.08;;;35.40;24.60;;;;;;5128988;27;20019;-75
2022/07/22 05:20:47;;;;;;;1.25;0.57;;;35.20;24.90;;;;;;5134336;27;20124;-75
2022/07/22 05:23:13;;;;;;;0.00;0.00;;;35.30;24.30;;;;;;5131207;27;20051;-74
2022/07/22 05:25:45;;;;;;;0.17;0.00;;;35.40;24.70;;;;;;5128094;27;20030;-76
2022/07/22 05:28:11;;;;;;;0.10;0.10;;;35.60;25.30;;;;;;5128219;27;20023;-74
2022/07/22 05:30:37;;;;;;;2.13;1.10;;;35.70;25.00;;;;;;5127131;27;20031;-74
2022/07/22 05:33:03;;;;;;;0.00;0.00;;;35.50;24.00;;;;;;5129033;27;20037;-73
2022/07/22 05:35:29;;;;;;;0.00;0.00;;;35.70;24.80;;;;;;5128097;27;20030;-73
2022/07/22 05:37:56;;;;;;;0.08;0.08;;;35.70;24.90;;;;;;5125775;27;20101;-73
2022/07/22 05:40:22;;;;;;;0.00;0.00;;;35.70;24.40;;;;;;5125842;27;20052;-74
2022/07/22 05:42:48;;;;;;;0.88;0.88;;;35.60;23.90;;;;;;5128274;27;20105;-74
2022/07/22 05:45:14;;;;;;;0.00;0.00;;;35.70;24.20;;;;;;5127099;27;20374;-74
2022/07/22 05:47:40;;;;;;;0.00;0.00;;;35.70;24.20;;;;;;5126908;27;20027;-74
2022/07/22 05:50:06;;;;;;;1.33;0.90;;;35.80;23.70;;;;;;5128726;27;20469;-73
2022/07/22 05:52:35;;;;;;;0.00;0.00;;;35.70;23.80;;;;;;5129351;27;20011;-74
2022/07/22 05:55:01;;;;;;;0.00;0.00;;;35.70;24.30;;;;;;5126336;27;20023;-75
2022/07/22 05:57:27;;;;;;;0.38;0.38;;;35.80;24.20;;;;;;5128844;27;20102;-74
2022/07/22 05:59:53;;;;;;;0.00;0.00;;;35.80;23.00;;;;;;5125737;27;20107;-74
2022/07/22 06:02:19;;;;;;;0.00;0.00;;;35.50;23.40;;;;;;5124653;27;20023;-75
2022/07/22 06:04:45;;;;;;;5.57;1.27;;;35.60;23.60;;;;;;5126587;27;20477;-75
2022/07/22 06:07:11;;;;;;;0.10;0.10;;;35.80;24.30;;;;;;5128489;27;20106;-75
2022/07/22 06:09:37;;;;;;;0.03;0.03;;;35.70;23.50;;;;;;5128863;27;20106;-75
2022/07/22 06:12:03;;;;;;;0.00;0.00;;;36.00;23.00;;;;;;5117922;27;20031;-73
2022/07/22 06:14:29;;;;;;;0.00;0.00;;;36.00;23.70;;;;;;5126435;27;20294;-73
2022/07/22 06:16:55;;;;;;;0.00;0.00;;;36.20;23.00;;;;;;5125569;27;20015;-73
2022/07/22 06:19:22;;;;;;;0.00;0.00;;;36.30;21.60;;;;;;5108929;28;20046;-73
2022/07/22 06:21:49;;;;;;;0.03;0.03;;;36.40;22.40;;;;;;5123161;27;20047;-75
2022/07/22 06:24:15;;;;;;;0.03;0.03;;;36.30;22.20;;;;;;5126015;27;20128;-73
2022/07/22 06:26:41;;;;;;;0.40;0.40;;;36.30;23.30;;;;;;5129851;27;20581;-73
2022/07/22 06:29:07;;;;;;;0.20;0.20;;;36.40;23.00;;;;;;5131100;27;20031;-74
2022/07/22 06:31:33;;;;;;;0.00;0.00;;;36.40;22.90;;;;;;5131912;27;20403;-73
2022/07/22 06:33:59;;;;;;;0.00;0.00;;;36.30;22.40;;;;;;5134134;27;20372;-76
2022/07/22 06:36:25;;;;;;;0.30;0.30;;;36.10;22.40;;;;;;5131978;27;20027;-73
2022/07/22 06:38:51;;;;;;;0.00;0.00;;;36.20;22.00;;;;;;5132018;27;20034;-73
2022/07/22 06:41:20;;;;;;;1.08;0.98;;;36.30;22.40;;;;;;5133561;27;20031;-73
2022/07/22 06:43:46;;;;;;;0.00;0.00;;;36.50;23.00;;;;;;5133135;27;20187;-73
2022/07/22 06:46:12;;;;;;;0.00;0.00;;;36.50;23.00;;;;;;5132562;27;20027;-73
2022/07/22 06:48:38;;;;;;;0.70;0.30;;;36.50;23.60;;;;;;5131554;27;20072;-74
2022/07/22 06:51:04;;;;;;;0.17;0.17;;;36.60;23.10;;;;;;5130229;27;20031;-74
2022/07/22 06:53:31;;;;;;;3.63;0.30;;;36.70;22.70;;;;;;5132340;27;20411;-74
2022/07/22 06:55:57;;;;;;;0.00;0.00;;;36.70;22.30;;;;;;5131595;27;20143;-73
2022/07/22 06:58:23;;;;;;;0.30;0.30;;;36.60;22.60;;;;;;5128368;27;20443;-74
2022/07/22 07:00:49;;;;;;;0.70;0.50;;;36.80;22.40;;;;;;5131543;27;20537;-74
2022/07/22 07:03:16;;;;;;;0.00;0.00;;;36.90;23.20;;;;;;5126492;27;20105;-73
2022/07/22 07:05:42;;;;;;;0.52;0.52;;;36.80;22.80;;;;;;5131827;27;20027;-73
2022/07/22 07:08:08;;;;;;;0.00;0.00;;;36.60;22.80;;;;;;5134327;27;20387;-74
2022/07/22 07:10:34;;;;;;;0.90;0.32;;;36.60;23.20;;;;;;5131165;27;20438;-75
2022/07/22 07:13:00;;;;;;;2.65;1.90;;;36.70;22.30;;;;;;5129158;27;20023;-74
2022/07/22 07:15:27;;;;;;;0.00;0.00;;;36.80;22.00;;;;;;5130575;27;20019;-73
2022/07/22 07:17:54;;;;;;;0.47;0.47;;;36.90;21.50;;;;;;5131970;27;20103;-74
2022/07/22 07:20:21;;;;;;;0.00;0.00;;;37.10;22.20;;;;;;5131346;27;20039;-75
2022/07/22 07:22:47;;;;;;;0.00;0.00;;;37.20;22.10;;;;;;5127568;27;20035;-72
2022/07/22 07:25:14;;;;;;;0.30;0.30;;;37.30;21.70;;;;;;5128385;27;21391;-75
2022/07/22 07:27:40;;;;;;;0.00;0.00;;;37.10;20.90;;;;;;5131142;27;20038;-74
2022/07/22 07:30:08;;;;;;;0.00;0.00;;;37.10;21.10;;;;;;5125793;27;20061;-74
2022/07/22 07:32:35;;;;;;;0.10;0.10;;;37.20;21.50;;;;;;5127269;27;20067;-74
2022/07/22 07:35:03;;;;;;;0.25;0.25;;;37.10;21.80;;;;;;5125401;27;20034;-73
2022/07/22 07:37:29;;;;;;;2.03;1.92;;;37.00;21.70;;;;;;5126464;27;20053;-74
2022/07/22 07:39:55;;;;;;;0.00;0.00;;;36.90;22.10;;;;;;5129705;27;20034;-75
2022/07/22 07:42:21;;;;;;;1.80;1.75;;;37.20;22.60;;;;;;5125271;27;20396;-73
2022/07/22 07:44:47;;;;;;;0.10;0.10;;;37.30;22.80;;;;;;5124308;27;20054;-75
2022/07/22 07:47:17;;;;;;;0.00;0.00;;;37.50;21.30;;;;;;5125625;27;20046;-73
2022/07/22 07:49:44;;;;;;;0.00;0.00;;;37.90;19.90;;;;;;5124904;27;20425;-73
2022/07/22 07:52:12;;;;;;;2.38;0.90;;;37.70;21.30;;;;;;5123670;27;20358;-73
2022/07/22 07:54:39;;;;;;;0.10;0.10;;;37.60;21.30;;;;;;5124561;27;20030;-74
2022/07/22 07:57:07;;;;;;;0.73;0.15;;;37.50;20.60;;;;;;5127953;27;20026;-73
2022/07/22 07:59:33;;;;;;;0.00;0.00;;;37.90;20.10;;;;;;5129960;27;20029;-74
2022/07/22 08:01:59;;;;;;;0.52;0.40;;;37.90;20.40;;;;;;5126465;27;20015;-73
2022/07/22 08:04:25;;;;;;;0.43;0.43;;;38.30;20.10;;;;;;5127470;27;20392;-73
2022/07/22 08:06:51;;;;;;;0.15;0.15;;;38.20;19.60;;;;;;5125734;27;20040;-74
2022/07/22 08:09:17;;;;;;;0.08;0.08;;;38.10;19.40;;;;;;5123436;27;20072;-73
2022/07/22 08:11:44;;;;;;;0.00;0.00;;;38.00;20.00;;;;;;5126332;27;20149;-73
2022/07/22 08:14:10;;;;;;;0.32;0.32;;;38.00;20.30;;;;;;5112013;27;20030;-73
2022/07/22 08:16:36;;;;;;;0.10;0.10;;;38.00;20.30;;;;;;5128174;27;20122;-73
2022/07/22 08:19:02;;;;;;;0.22;0.20;;;37.90;19.90;;;;;;5122024;27;20138;-74
2022/07/22 08:21:28;;;;;;;2.08;1.98;;;38.00;20.50;;;;;;5127138;27;20069;-73
2022/07/22 08:23:54;;;;;;;1.45;1.35;;;38.10;19.50;;;;;;5123310;27;20054;-74
2022/07/22 08:26:20;;;;;;;0.00;0.00;;;37.90;18.50;;;;;;5128262;27;20027;-73
2022/07/22 08:28:46;;;;;;;0.00;0.00;;;38.00;18.60;;;;;;5127444;27;20034;-75
2022/07/22 08:31:12;;;;;;;0.00;0.00;;;38.30;19.20;;;;;;5125412;27;20398;-74
2022/07/22 08:33:38;;;;;;;1.35;0.70;;;38.30;18.10;;;;;;5125843;27;20020;-74
2022/07/22 08:36:05;;;;;;;0.00;0.00;;;38.50;18.20;;;;;;5125666;27;20465;-75
2022/07/22 08:38:31;;;;;;;0.00;0.00;;;38.20;18.00;;;;;;5127680;27;20031;-74
2022/07/22 08:40:58;;;;;;;0.28;0.28;;;38.00;17.80;;;;;;5122086;27;20154;-74
2022/07/22 08:43:25;;;;;;;0.00;0.00;;;38.30;17.90;;;;;;5129311;27;20709;-75
2022/07/22 08:45:51;;;;;;;0.00;0.00;;;38.50;18.50;;;;;;5127535;27;20039;-73
2022/07/22 08:48:17;;;;;;;0.00;0.00;;;38.80;18.30;;;;;;5128218;27;20570;-73
2022/07/22 08:50:44;;;;;;;0.00;0.00;;;38.90;19.00;;;;;;5129823;27;20065;-73
2022/07/22 08:53:12;;;;;;;0.00;0.00;;;38.60;18.50;;;;;;5133222;27;20037;-74
2022/07/22 08:55:43;;;;;;;0.00;0.00;;;38.80;18.90;;;;;;5130812;27;20019;-74
2022/07/22 08:58:09;;;;;;;1.17;0.55;;;38.90;18.80;;;;;;5126927;27;20475;-74
2022/07/22 09:00:35;;;;;;;0.73;0.73;;;39.20;18.80;;;;;;5128052;27;20110;-75
2022/07/22 09:03:23;;;;;;;1.10;0.75;;;39.20;18.60;;;;;;5128963;27;20361;-74
2022/07/22 09:05:50;;;;;;;0.45;0.43;;;39.20;18.80;;;;;;5126150;27;20158;-74
2022/07/22 09:08:16;;;;;;;0.00;0.00;;;39.10;18.70;;;;;;5127600;27;20031;-73
2022/07/22 09:10:42;;;;;;;0.10;0.10;;;38.70;19.40;;;;;;5128956;27;20118;-74
2022/07/22 09:13:10;;;;;;;0.17;0.17;;;38.80;19.30;;;;;;5131854;27;20098;-74
2022/07/22 09:15:50;;;;;;;0.00;0.00;;;38.70;18.80;;;;;;5132955;27;20022;-74
2022/07/22 09:18:17;;;;;;;0.00;0.00;;;38.70;19.40;;;;;;5130533;27;20042;-74
2022/07/22 09:20:46;;;;;;;0.00;0.00;;;39.00;19.90;;;;;;5129051;27;20064;-74
2022/07/22 09:23:17;;;;;;;0.50;0.35;;;39.00;20.80;;;;;;5130440;27;20026;-73
2022/07/22 09:25:43;;;;;;;0.00;0.00;;;38.70;20.40;;;;;;5111725;27;20037;-72
2022/07/22 09:28:11;;;;;;;0.00;0.00;;;38.60;20.60;;;;;;5132375;27;20415;-73
2022/07/22 09:30:40;;;;;;;0.08;0.08;;;38.80;20.80;;;;;;5133762;27;20185;-73
2022/07/22 09:33:08;;;;;;;0.00;0.00;;;39.10;19.90;;;;;;5130530;27;20031;-74
2022/07/22 09:35:34;;;;;;;0.00;0.00;;;39.00;20.60;;;;;;5126217;27;20015;-76
2022/07/22 09:38:05;;;;;;;0.00;0.00;;;39.10;21.30;;;;;;5133545;27;20027;-73
2022/07/22 09:40:44;;;;;;;0.00;0.00;;;38.90;20.90;;;;;;5130710;27;20038;-73
2022/07/22 09:43:13;;;;;;;0.05;0.05;;;38.80;21.10;;;;;;5129267;27;20058;-74
2022/07/22 09:45:59;;;;;;;0.63;0.63;;;38.90;21.20;;;;;;5127797;27;20034;-73
2022/07/22 09:48:26;;;;;;;0.10;0.10;;;39.00;20.20;;;;;;5127467;27;20023;-72
2022/07/22 09:50:55;;;;;;;0.20;0.20;;;38.90;20.40;;;;;;5125541;27;20035;-72
2022/07/22 09:53:23;;;;;;;0.00;0.00;;;38.90;20.80;;;;;;5127141;27;20030;-73
2022/07/22 09:55:50;;;;;;;3.17;0.52;;;39.00;21.10;;;;;;5128673;27;20030;-74
2022/07/22 09:58:16;;;;;;;0.00;0.00;;;38.90;20.60;;;;;;5122459;27;20055;-74
2022/07/22 10:00:43;;;;;;;0.47;0.32;;;38.80;20.50;;;;;;5128855;27;20031;-74
2022/07/22 10:03:17;;;;;;;0.00;0.00;;;38.80;21.40;;;;;;5122445;27;20054;-72
2022/07/22 10:05:43;;;;;;;0.50;0.20;;;38.90;21.10;;;;;;5124032;27;20047;-75
2022/07/22 10:08:10;;;;;;;0.00;0.00;;;38.80;20.60;;;;;;5125864;27;20118;-73
2022/07/22 10:10:38;;;;;;;0.00;0.00;;;38.60;20.40;;;;;;5128932;27;20031;-73
2022/07/22 10:13:06;;;;;;;0.00;0.00;;;38.50;20.80;;;;;;5133642;27;20023;-72
2022/07/22 10:15:33;;;;;;;0.00;0.00;;;38.50;20.50;;;;;;5129322;27;20027;-73
2022/07/22 10:18:04;;;;;;;0.00;0.00;;;38.50;20.70;;;;;;5133803;27;20034;-73
2022/07/22 10:20:31;;;;;;;1.02;0.88;;;38.70;21.10;;;;;;5135932;27;20043;-73
2022/07/22 10:23:06;;;;;;;0.00;0.00;;;38.90;21.30;;;;;;5124349;27;20047;-75
2022/07/22 10:25:50;;;;;;;0.00;0.00;;;39.00;20.70;;;;;;5125635;27;20024;-73
2022/07/22 10:28:24;;;;;;;0.00;0.00;;;38.90;20.50;;;;;;5124008;28;20031;-73
2022/07/22 10:30:50;;;;;;;0.00;0.00;;;39.00;20.80;;;;;;5128809;28;20027;-73
2022/07/22 10:33:19;;;;;;;0.10;0.10;;;38.90;20.60;;;;;;5128683;27;20358;-73
2022/07/22 10:36:02;;;;;;;0.00;0.00;;;38.90;20.60;;;;;;5125116;27;20024;-73
2022/07/22 10:38:29;;;;;;;0.03;0.03;;;38.90;20.50;;;;;;5125798;27;20027;-74
2022/07/22 10:40:58;;;;;;;0.00;0.00;;;38.90;20.60;;;;;;5125010;27;20035;-74
2022/07/22 10:43:27;;;;;;;0.00;0.00;;;38.90;20.70;;;;;;5124589;27;20031;-73
2022/07/22 10:46:02;;;;;;;0.05;0.05;;;38.80;21.00;;;;;;5125098;27;20065;-73
2022/07/22 10:48:37;;;;;;;0.00;0.00;;;38.80;21.00;;;;;;5127864;27;20102;-73
2022/07/22 10:51:10;;;;;;;0.52;0.38;;;38.80;20.80;;;;;;5123603;27;20062;-74
2022/07/22 10:53:52;;;;;;;0.00;0.00;;;38.60;21.30;;;;;;5125395;27;20063;-73
2022/07/22 10:56:26;;;;;;;0.00;0.00;;;38.40;22.10;;;;;;5125486;27;20052;-74
2022/07/22 10:59:10;;;;;;;1.17;1.15;;;38.40;21.50;;;;;;5129455;27;20031;-74
2022/07/22 11:01:38;;;;;;;0.00;0.00;;;38.20;21.10;;;;;;5129043;27;20520;-74
2022/07/22 11:04:21;;;;;;;0.00;0.00;;;38.10;20.90;;;;;;5128685;27;20027;-74
2022/07/22 11:06:49;;;;;;;0.00;0.00;;;38.10;21.40;;;;;;5130705;27;20073;-74
2022/07/22 11:09:17;;;;;;;0.00;0.00;;;38.20;21.00;;;;;;5130148;27;20054;-73
2022/07/22 11:11:49;;;;;;;0.00;0.00;;;38.10;21.30;;;;;;5127058;27;20035;-74
2022/07/22 11:14:26;;;;;;;0.17;0.13;;;38.00;20.40;;;;;;5132126;27;20090;-73
2022/07/22 11:16:56;;;;;;;0.63;0.30;;;38.00;20.70;;;;;;5133782;27;20083;-73
2022/07/22 11:19:27;;;;;;;0.00;0.00;;;38.00;21.80;;;;;;5134139;27;20397;-74
2022/07/22 11:21:56;;;;;;;7.75;1.13;;;38.10;21.80;;;;;;5130634;27;20381;-73
2022/07/22 11:24:25;;;;;;;0.00;0.00;;;38.10;21.20;;;;;;5129603;27;20031;-73
2022/07/22 11:26:52;;;;;;;0.00;0.00;;;38.10;21.10;;;;;;5112404;27;20066;-74
2022/07/22 11:29:34;;;;;;;0.00;0.00;;;38.10;21.30;;;;;;5128777;27;20035;-74
2022/07/22 11:32:01;;;;;;;0.00;0.00;;;38.00;21.50;;;;;;5130057;27;20062;-74
2022/07/22 11:34:28;;;;;;;0.00;0.00;;;38.00;21.90;;;;;;5127599;27;20058;-74
2022/07/22 11:36:55;;;;;;;0.00;0.00;;;38.00;21.80;;;;;;5128421;27;20038;-73
2022/07/22 11:39:25;;;;;;;0.98;0.98;;;38.00;21.90;;;;;;5128018;27;20388;-74
2022/07/22 11:41:53;;;;;;;0.00;0.00;;;37.90;21.20;;;;;;5129957;27;20503;-74
2022/07/22 11:44:21;;;;;;;0.00;0.00;;;37.90;22.40;;;;;;5129959;27;20046;-73
2022/07/22 11:46:48;;;;;;;0.65;0.30;;;37.90;22.10;;;;;;5131683;27;20399;-73
2022/07/22 11:49:20;;;;;;;0.00;0.00;;;37.90;22.20;;;;;;5128119;27;20499;-74
2022/07/22 11:51:47;;;;;;;0.00;0.00;;;37.90;22.30;;;;;;5131603;27;20038;-74
2022/07/22 11:54:14;;;;;;;0.00;0.00;;;37.80;21.70;;;;;;5132674;27;20023;-74
2022/07/22 11:56:40;;;;;;;0.00;0.00;;;37.70;22.40;;;;;;5132126;27;20706;-74
2022/07/22 11:59:09;;;;;;;0.00;0.00;;;37.70;22.30;;;;;;5134226;27;20468;-75
2022/07/22 12:01:37;;;;;;;0.68;0.68;;;37.60;21.90;;;;;;5131668;27;20062;-74
2022/07/22 12:04:08;;;;;;;0.00;0.00;;;37.60;22.60;;;;;;5140890;27;20030;-75
2022/07/22 12:06:38;;;;;;;0.00;0.00;;;37.60;22.70;;;;;;5135296;27;20027;-74
2022/07/22 12:09:12;;;;;;;0.22;0.22;;;37.60;22.30;;;;;;5134872;27;20113;-74
2022/07/22 12:11:44;;;;;;;0.00;0.00;;;37.40;21.40;;;;;;5131202;27;20019;-74
2022/07/22 12:14:15;;;;;;;0.00;0.00;;;37.40;21.90;;;;;;5130443;27;20017;-74
2022/07/22 12:16:44;;;;;;;0.00;0.00;;;37.20;22.20;;;;;;5126650;27;20031;-74
2022/07/22 12:19:13;;;;;;;0.00;0.00;;;37.30;22.20;;;;;;5128706;27;20057;-75
2022/07/22 12:22:21;;;;;;;0.00;0.00;;;37.40;21.70;;;;;;5124573;27;20509;-74
2022/07/22 12:25:00;;;;;;;0.00;0.00;;;37.40;21.40;;;;;;5028697;28;20080;-74
2022/07/22 12:27:26;;;;;;;0.00;0.00;;;37.50;21.90;;;;;;5028657;28;20060;-74
2022/07/22 12:29:52;;;;;;;0.00;0.00;;;37.50;21.20;;;;;;5089176;27;20042;-78
2022/07/22 12:32:24;;;;;;;0.00;0.00;;;37.40;21.60;;;;;;5129898;27;20316;-74
2022/07/22 12:35:00;;;;;;;0.00;0.00;;;37.30;21.90;;;;;;5133214;27;20054;-75
2022/07/22 12:37:41;;;;;;;9.30;4.38;;;37.30;22.00;;;;;;5133680;27;20034;-75
2022/07/22 12:40:25;;;;;;;0.00;0.00;;;37.30;22.00;;;;;;5138488;27;20018;-74
2022/07/22 12:43:02;;;;;;;0.08;0.08;;;37.30;22.20;;;;;;5132382;27;20060;-74
2022/07/22 12:45:30;;;;;;;0.00;0.00;;;37.20;23.10;;;;;;5133907;27;20050;-74
2022/07/22 12:48:06;;;;;;;0.00;0.00;;;37.20;21.90;;;;;;5133427;27;20473;-76
2022/07/22 12:50:43;;;;;;;0.00;0.00;;;37.10;21.80;;;;;;5122560;27;20376;-74